sensor_id;sensor_type;location;lat;lon;timestamp;temperature;humidity
16229;DHT22;8222;51.462;12.630;2023-07-29T00:02:24;21.70;99.90
16229;DHT22;8222;51.462;12.630;2023-07-29T00:04:50;21.90;99.90
16229;DHT22;8222;51.462;12.630;2023-07-29T00:07:18;21.90;99.90
16229;DHT22;8222;51.462;12.630;2023-07-29T00:09:44;21.90;99.90
16229;DHT22;8222;51.462;12.630;2023-07-29T00:12:09;21.90;99.90
16229;DHT22;8222;51.462;12.630;2023-07-29T00:14:36;21.90;99.90
16229;DHT22;8222;51.462;12.630;2023-07-29T00:17:02;22.00;99.90
16229;DHT22;8222;51.462;12.630;2023-07-29T00:19:28;22.00;99.90
16229;DHT22;8222;51.462;12.630;2023-07-29T00:21:56;22.00;99.90
16229;DHT22;8222;51.462;12.630;2023-07-29T00:24:22;22.00;99.90
16229;DHT22;8222;51.462;12.630;2023-07-29T00:26:47;22.10;99.90
16229;DHT22;8222;51.462;12.630;2023-07-29T00:29:15;22.20;99.90
16229;DHT22;8222;51.462;12.630;2023-07-29T00:31:41;22.10;99.90
16229;DHT22;8222;51.462;12.630;2023-07-29T00:34:09;22.10;99.90
16229;DHT22;8222;51.462;12.630;2023-07-29T00:36:34;22.00;99.90
16229;DHT22;8222;51.462;12.630;2023-07-29T00:39:00;22.10;99.90
16229;DHT22;8222;51.462;12.630;2023-07-29T00:41:26;22.00;99.90
16229;DHT22;8222;51.462;12.630;2023-07-29T00:43:51;21.80;99.90
16229;DHT22;8222;51.462;12.630;2023-07-29T00:46:20;21.70;99.90
16229;DHT22;8222;51.462;12.630;2023-07-29T00:48:46;21.60;99.90
16229;DHT22;8222;51.462;12.630;2023-07-29T00:51:14;21.60;99.90
16229;DHT22;8222;51.462;12.630;2023-07-29T00:53:40;21.60;99.90
16229;DHT22;8222;51.462;12.630;2023-07-29T00:56:06;21.60;99.90
16229;DHT22;8222;51.462;12.630;2023-07-29T00:58:35;21.70;99.90
16229;DHT22;8222;51.462;12.630;2023-07-29T01:03:39;21.70;99.90
16229;DHT22;8222;51.462;12.630;2023-07-29T01:07:03;21.80;99.90
16229;DHT22;8222;51.462;12.630;2023-07-29T01:14:41;22.20;99.90
16229;DHT22;8222;51.462;12.630;2023-07-29T01:17:17;22.30;99.90
16229;DHT22;8222;51.462;12.630;2023-07-29T01:20:15;22.20;99.90
16229;DHT22;8222;51.462;12.630;2023-07-29T01:22:42;22.20;99.90
16229;DHT22;8222;51.462;12.630;2023-07-29T01:25:13;22.20;99.90
16229;DHT22;8222;51.462;12.630;2023-07-29T01:27:41;22.30;99.90
16229;DHT22;8222;51.462;12.630;2023-07-29T01:30:07;22.20;99.90
16229;DHT22;8222;51.462;12.630;2023-07-29T01:32:54;22.20;99.90
16229;DHT22;8222;51.462;12.630;2023-07-29T01:35:42;21.90;99.90
16229;DHT22;8222;51.462;12.630;2023-07-29T01:38:19;22.20;99.90
16229;DHT22;8222;51.462;12.630;2023-07-29T01:40:48;22.30;99.90
16229;DHT22;8222;51.462;12.630;2023-07-29T01:43:15;22.20;99.90
16229;DHT22;8222;51.462;12.630;2023-07-29T01:45:51;22.10;99.90
16229;DHT22;8222;51.462;12.630;2023-07-29T01:48:16;22.10;99.90
16229;DHT22;8222;51.462;12.630;2023-07-29T01:50:42;22.00;99.90
16229;DHT22;8222;51.462;12.630;2023-07-29T01:53:11;22.10;99.90
16229;DHT22;8222;51.462;12.630;2023-07-29T01:55:40;22.00;99.90
16229;DHT22;8222;51.462;12.630;2023-07-29T01:58:06;22.10;99.90
16229;DHT22;8222;51.462;12.630;2023-07-29T02:00:34;22.10;99.90
16229;DHT22;8222;51.462;12.630;2023-07-29T02:02:59;22.10;99.90
16229;DHT22;8222;51.462;12.630;2023-07-29T02:05:27;22.10;99.90
16229;DHT22;8222;51.462;12.630;2023-07-29T02:07:55;22.00;99.90
16229;DHT22;8222;51.462;12.630;2023-07-29T02:10:21;22.10;99.90
16229;DHT22;8222;51.462;12.630;2023-07-29T02:12:46;22.00;99.90
16229;DHT22;8222;51.462;12.630;2023-07-29T02:15:12;22.10;99.90
16229;DHT22;8222;51.462;12.630;2023-07-29T02:17:39;22.10;99.90
16229;DHT22;8222;51.462;12.630;2023-07-29T02:20:05;22.20;99.90
16229;DHT22;8222;51.462;12.630;2023-07-29T02:22:31;22.20;99.90
16229;DHT22;8222;51.462;12.630;2023-07-29T02:24:57;22.30;99.90
16229;DHT22;8222;51.462;12.630;2023-07-29T02:27:22;22.30;99.90
16229;DHT22;8222;51.462;12.630;2023-07-29T02:29:50;22.30;99.90
16229;DHT22;8222;51.462;12.630;2023-07-29T02:32:19;22.40;99.90
16229;DHT22;8222;51.462;12.630;2023-07-29T02:34:48;22.40;99.90
16229;DHT22;8222;51.462;12.630;2023-07-29T02:37:14;22.60;99.90
16229;DHT22;8222;51.462;12.630;2023-07-29T02:39:39;22.50;99.90
16229;DHT22;8222;51.462;12.630;2023-07-29T02:42:05;22.40;99.90
16229;DHT22;8222;51.462;12.630;2023-07-29T02:44:31;22.50;99.90
16229;DHT22;8222;51.462;12.630;2023-07-29T02:46:57;22.50;99.90
16229;DHT22;8222;51.462;12.630;2023-07-29T02:49:25;22.40;99.90
16229;DHT22;8222;51.462;12.630;2023-07-29T02:51:50;22.30;99.90
16229;DHT22;8222;51.462;12.630;2023-07-29T02:54:16;22.30;99.90
16229;DHT22;8222;51.462;12.630;2023-07-29T02:56:44;22.40;99.90
16229;DHT22;8222;51.462;12.630;2023-07-29T02:59:12;22.40;99.90
16229;DHT22;8222;51.462;12.630;2023-07-29T03:01:38;22.30;99.90
16229;DHT22;8222;51.462;12.630;2023-07-29T03:04:06;22.50;99.90
16229;DHT22;8222;51.462;12.630;2023-07-29T03:06:31;22.40;99.90
16229;DHT22;8222;51.462;12.630;2023-07-29T03:08:59;22.50;99.90
16229;DHT22;8222;51.462;12.630;2023-07-29T03:11:25;22.40;99.90
16229;DHT22;8222;51.462;12.630;2023-07-29T03:13:53;22.40;99.90
16229;DHT22;8222;51.462;12.630;2023-07-29T03:16:18;22.30;99.90
16229;DHT22;8222;51.462;12.630;2023-07-29T03:18:44;22.10;99.90
16229;DHT22;8222;51.462;12.630;2023-07-29T03:21:10;22.00;99.90
16229;DHT22;8222;51.462;12.630;2023-07-29T03:23:37;21.90;99.90
16229;DHT22;8222;51.462;12.630;2023-07-29T03:26:03;21.80;99.90
16229;DHT22;8222;51.462;12.630;2023-07-29T03:28:40;21.80;99.90
16229;DHT22;8222;51.462;12.630;2023-07-29T03:31:06;21.80;99.90
16229;DHT22;8222;51.462;12.630;2023-07-29T03:33:33;21.90;99.90
16229;DHT22;8222;51.462;12.630;2023-07-29T03:35:58;21.80;99.90
16229;DHT22;8222;51.462;12.630;2023-07-29T03:38:26;21.70;99.90
16229;DHT22;8222;51.462;12.630;2023-07-29T03:40:53;21.70;99.90
16229;DHT22;8222;51.462;12.630;2023-07-29T03:43:19;21.70;99.90
16229;DHT22;8222;51.462;12.630;2023-07-29T03:45:45;21.70;99.90
16229;DHT22;8222;51.462;12.630;2023-07-29T03:48:10;21.70;99.90
16229;DHT22;8222;51.462;12.630;2023-07-29T03:50:36;21.70;99.90
16229;DHT22;8222;51.462;12.630;2023-07-29T03:53:03;21.60;99.90
16229;DHT22;8222;51.462;12.630;2023-07-29T03:55:31;21.60;99.90
16229;DHT22;8222;51.462;12.630;2023-07-29T03:57:58;21.70;99.90
16229;DHT22;8222;51.462;12.630;2023-07-29T04:00:24;21.80;99.90
16229;DHT22;8222;51.462;12.630;2023-07-29T04:02:49;21.80;99.90
16229;DHT22;8222;51.462;12.630;2023-07-29T04:05:16;21.80;99.90
16229;DHT22;8222;51.462;12.630;2023-07-29T04:07:41;21.70;99.90
16229;DHT22;8222;51.462;12.630;2023-07-29T04:10:07;21.70;99.90
16229;DHT22;8222;51.462;12.630;2023-07-29T04:12:33;21.70;99.90
16229;DHT22;8222;51.462;12.630;2023-07-29T04:14:59;21.60;99.90
16229;DHT22;8222;51.462;12.630;2023-07-29T04:17:27;21.60;99.90
16229;DHT22;8222;51.462;12.630;2023-07-29T04:19:53;21.70;99.90
16229;DHT22;8222;51.462;12.630;2023-07-29T04:22:18;21.70;99.90
16229;DHT22;8222;51.462;12.630;2023-07-29T04:24:44;21.70;99.90
16229;DHT22;8222;51.462;12.630;2023-07-29T04:27:10;21.80;99.90
16229;DHT22;8222;51.462;12.630;2023-07-29T04:29:36;21.70;99.90
16229;DHT22;8222;51.462;12.630;2023-07-29T04:32:05;21.70;99.90
16229;DHT22;8222;51.462;12.630;2023-07-29T04:34:31;21.60;99.90
16229;DHT22;8222;51.462;12.630;2023-07-29T04:36:57;21.50;99.90
16229;DHT22;8222;51.462;12.630;2023-07-29T04:39:23;21.60;99.90
16229;DHT22;8222;51.462;12.630;2023-07-29T04:41:48;21.60;99.90
16229;DHT22;8222;51.462;12.630;2023-07-29T04:44:14;21.70;99.90
16229;DHT22;8222;51.462;12.630;2023-07-29T04:46:40;21.70;99.90
16229;DHT22;8222;51.462;12.630;2023-07-29T04:49:07;21.70;99.90
16229;DHT22;8222;51.462;12.630;2023-07-29T04:51:38;21.70;99.90
16229;DHT22;8222;51.462;12.630;2023-07-29T04:54:04;21.70;99.90
16229;DHT22;8222;51.462;12.630;2023-07-29T04:56:29;21.80;99.90
16229;DHT22;8222;51.462;12.630;2023-07-29T04:58:55;21.80;99.90
16229;DHT22;8222;51.462;12.630;2023-07-29T05:01:23;21.80;99.90
16229;DHT22;8222;51.462;12.630;2023-07-29T05:03:50;21.90;99.90
16229;DHT22;8222;51.462;12.630;2023-07-29T05:06:18;21.90;99.90
16229;DHT22;8222;51.462;12.630;2023-07-29T05:08:46;22.10;99.90
16229;DHT22;8222;51.462;12.630;2023-07-29T05:11:14;22.10;99.90
16229;DHT22;8222;51.462;12.630;2023-07-29T05:13:40;22.20;99.90
16229;DHT22;8222;51.462;12.630;2023-07-29T05:16:06;22.40;99.90
16229;DHT22;8222;51.462;12.630;2023-07-29T05:18:33;22.40;99.90
16229;DHT22;8222;51.462;12.630;2023-07-29T05:20:59;22.60;99.90
16229;DHT22;8222;51.462;12.630;2023-07-29T05:23:25;22.80;99.90
16229;DHT22;8222;51.462;12.630;2023-07-29T05:25:50;23.00;99.90
16229;DHT22;8222;51.462;12.630;2023-07-29T05:28:16;23.10;99.90
16229;DHT22;8222;51.462;12.630;2023-07-29T05:30:44;23.10;99.90
16229;DHT22;8222;51.462;12.630;2023-07-29T05:33:10;23.20;99.90
16229;DHT22;8222;51.462;12.630;2023-07-29T05:35:35;23.30;99.90
16229;DHT22;8222;51.462;12.630;2023-07-29T05:38:05;23.30;99.90
16229;DHT22;8222;51.462;12.630;2023-07-29T05:40:34;23.20;99.90
16229;DHT22;8222;51.462;12.630;2023-07-29T05:43:05;23.20;99.90
16229;DHT22;8222;51.462;12.630;2023-07-29T05:45:31;23.20;99.90
16229;DHT22;8222;51.462;12.630;2023-07-29T05:47:57;23.20;99.90
16229;DHT22;8222;51.462;12.630;2023-07-29T05:50:22;23.20;99.90
16229;DHT22;8222;51.462;12.630;2023-07-29T05:52:48;23.30;99.90
16229;DHT22;8222;51.462;12.630;2023-07-29T05:55:16;23.30;99.90
16229;DHT22;8222;51.462;12.630;2023-07-29T05:57:42;23.40;99.90
16229;DHT22;8222;51.462;12.630;2023-07-29T06:00:10;23.50;99.90
16229;DHT22;8222;51.462;12.630;2023-07-29T06:02:38;23.70;99.90
16229;DHT22;8222;51.462;12.630;2023-07-29T06:05:05;23.70;99.90
16229;DHT22;8222;51.462;12.630;2023-07-29T06:07:31;23.80;99.90
16229;DHT22;8222;51.462;12.630;2023-07-29T06:09:58;23.70;99.90
16229;DHT22;8222;51.462;12.630;2023-07-29T06:12:24;23.80;99.90
16229;DHT22;8222;51.462;12.630;2023-07-29T06:14:52;23.90;99.90
16229;DHT22;8222;51.462;12.630;2023-07-29T06:17:18;24.20;99.90
16229;DHT22;8222;51.462;12.630;2023-07-29T06:19:43;24.20;99.90
16229;DHT22;8222;51.462;12.630;2023-07-29T06:22:09;24.20;99.90
16229;DHT22;8222;51.462;12.630;2023-07-29T06:24:35;24.20;99.90
16229;DHT22;8222;51.462;12.630;2023-07-29T06:27:01;24.70;99.90
16229;DHT22;8222;51.462;12.630;2023-07-29T06:29:27;24.30;99.90
16229;DHT22;8222;51.462;12.630;2023-07-29T06:31:52;24.40;99.90
16229;DHT22;8222;51.462;12.630;2023-07-29T06:34:19;24.40;99.90
16229;DHT22;8222;51.462;12.630;2023-07-29T06:36:47;24.40;99.90
16229;DHT22;8222;51.462;12.630;2023-07-29T06:39:13;24.50;99.90
16229;DHT22;8222;51.462;12.630;2023-07-29T06:41:41;24.40;99.90
16229;DHT22;8222;51.462;12.630;2023-07-29T06:44:12;24.40;99.90
16229;DHT22;8222;51.462;12.630;2023-07-29T06:46:39;24.40;99.90
16229;DHT22;8222;51.462;12.630;2023-07-29T06:49:05;24.50;99.90
16229;DHT22;8222;51.462;12.630;2023-07-29T06:51:31;24.50;99.90
16229;DHT22;8222;51.462;12.630;2023-07-29T06:54:00;24.60;99.90
16229;DHT22;8222;51.462;12.630;2023-07-29T06:56:29;24.70;99.90
16229;DHT22;8222;51.462;12.630;2023-07-29T06:58:54;24.90;99.90
16229;DHT22;8222;51.462;12.630;2023-07-29T07:01:22;25.00;99.90
16229;DHT22;8222;51.462;12.630;2023-07-29T07:03:51;25.10;99.90
16229;DHT22;8222;51.462;12.630;2023-07-29T07:06:20;25.20;99.90
16229;DHT22;8222;51.462;12.630;2023-07-29T07:08:46;25.30;99.90
16229;DHT22;8222;51.462;12.630;2023-07-29T07:11:12;25.50;99.90
16229;DHT22;8222;51.462;12.630;2023-07-29T07:13:39;25.50;99.90
16229;DHT22;8222;51.462;12.630;2023-07-29T07:16:05;25.80;99.90
16229;DHT22;8222;51.462;12.630;2023-07-29T07:18:31;25.90;99.90
16229;DHT22;8222;51.462;12.630;2023-07-29T07:20:56;26.10;99.90
16229;DHT22;8222;51.462;12.630;2023-07-29T07:23:22;26.30;99.90
16229;DHT22;8222;51.462;12.630;2023-07-29T07:25:48;26.40;99.90
16229;DHT22;8222;51.462;12.630;2023-07-29T07:28:13;26.50;99.90
16229;DHT22;8222;51.462;12.630;2023-07-29T07:30:41;26.60;99.90
16229;DHT22;8222;51.462;12.630;2023-07-29T07:33:07;26.90;99.90
16229;DHT22;8222;51.462;12.630;2023-07-29T07:35:33;27.20;99.90
16229;DHT22;8222;51.462;12.630;2023-07-29T07:38:01;27.40;99.90
16229;DHT22;8222;51.462;12.630;2023-07-29T07:40:32;27.40;99.90
16229;DHT22;8222;51.462;12.630;2023-07-29T07:42:58;27.50;99.90
16229;DHT22;8222;51.462;12.630;2023-07-29T07:45:24;27.40;99.90
16229;DHT22;8222;51.462;12.630;2023-07-29T07:47:52;27.30;99.90
16229;DHT22;8222;51.462;12.630;2023-07-29T07:50:21;27.40;99.90
16229;DHT22;8222;51.462;12.630;2023-07-29T07:52:47;27.30;99.90
16229;DHT22;8222;51.462;12.630;2023-07-29T07:55:15;27.30;99.90
16229;DHT22;8222;51.462;12.630;2023-07-29T07:57:40;27.20;99.90
16229;DHT22;8222;51.462;12.630;2023-07-29T08:00:09;27.50;99.90
16229;DHT22;8222;51.462;12.630;2023-07-29T08:02:37;27.90;99.90
16229;DHT22;8222;51.462;12.630;2023-07-29T08:05:06;28.10;99.90
16229;DHT22;8222;51.462;12.630;2023-07-29T08:07:31;28.10;99.90
16229;DHT22;8222;51.462;12.630;2023-07-29T08:09:59;28.10;99.90
16229;DHT22;8222;51.462;12.630;2023-07-29T08:12:25;28.00;99.90
16229;DHT22;8222;51.462;12.630;2023-07-29T08:14:55;28.10;99.90
16229;DHT22;8222;51.462;12.630;2023-07-29T08:17:21;28.10;99.90
16229;DHT22;8222;51.462;12.630;2023-07-29T08:19:46;28.00;99.90
16229;DHT22;8222;51.462;12.630;2023-07-29T08:22:12;27.90;99.90
16229;DHT22;8222;51.462;12.630;2023-07-29T08:24:42;27.90;99.90
16229;DHT22;8222;51.462;12.630;2023-07-29T08:27:08;27.90;99.90
16229;DHT22;8222;51.462;12.630;2023-07-29T08:29:33;27.80;99.90
16229;DHT22;8222;51.462;12.630;2023-07-29T08:31:59;27.80;99.90
16229;DHT22;8222;51.462;12.630;2023-07-29T08:34:29;27.70;99.90
16229;DHT22;8222;51.462;12.630;2023-07-29T08:36:55;27.80;99.90
16229;DHT22;8222;51.462;12.630;2023-07-29T08:39:20;27.80;99.90
16229;DHT22;8222;51.462;12.630;2023-07-29T08:44:39;28.10;99.90
16229;DHT22;8222;51.462;12.630;2023-07-29T08:47:06;28.20;99.90
16229;DHT22;8222;51.462;12.630;2023-07-29T08:49:32;28.30;99.90
16229;DHT22;8222;51.462;12.630;2023-07-29T08:52:01;28.20;99.90
16229;DHT22;8222;51.462;12.630;2023-07-29T08:54:29;28.30;99.90
16229;DHT22;8222;51.462;12.630;2023-07-29T08:56:55;28.30;99.90
16229;DHT22;8222;51.462;12.630;2023-07-29T08:59:21;28.20;99.90
16229;DHT22;8222;51.462;12.630;2023-07-29T09:01:47;27.90;99.90
16229;DHT22;8222;51.462;12.630;2023-07-29T09:04:13;27.90;99.90
16229;DHT22;8222;51.462;12.630;2023-07-29T09:06:39;27.90;99.90
16229;DHT22;8222;51.462;12.630;2023-07-29T09:09:08;27.70;99.90
16229;DHT22;8222;51.462;12.630;2023-07-29T09:11:34;27.50;99.90
16229;DHT22;8222;51.462;12.630;2023-07-29T09:13:59;27.30;99.90
16229;DHT22;8222;51.462;12.630;2023-07-29T09:16:29;27.20;99.90
16229;DHT22;8222;51.462;12.630;2023-07-29T09:18:55;27.00;99.90
16229;DHT22;8222;51.462;12.630;2023-07-29T09:21:24;27.20;99.90
16229;DHT22;8222;51.462;12.630;2023-07-29T09:23:50;27.30;99.90
16229;DHT22;8222;51.462;12.630;2023-07-29T09:26:26;27.60;99.90
16229;DHT22;8222;51.462;12.630;2023-07-29T09:28:53;27.70;99.90
16229;DHT22;8222;51.462;12.630;2023-07-29T09:31:24;28.00;99.90
16229;DHT22;8222;51.462;12.630;2023-07-29T09:34:00;28.10;99.90
16229;DHT22;8222;51.462;12.630;2023-07-29T09:36:26;28.40;99.90
16229;DHT22;8222;51.462;12.630;2023-07-29T09:38:55;28.50;99.90
16229;DHT22;8222;51.462;12.630;2023-07-29T09:41:25;28.70;99.90
16229;DHT22;8222;51.462;12.630;2023-07-29T09:44:04;29.00;99.90
16229;DHT22;8222;51.462;12.630;2023-07-29T09:46:35;29.40;99.90
16229;DHT22;8222;51.462;12.630;2023-07-29T09:49:03;29.50;99.90
16229;DHT22;8222;51.462;12.630;2023-07-29T09:51:29;29.40;99.90
16229;DHT22;8222;51.462;12.630;2023-07-29T09:53:55;29.40;99.90
16229;DHT22;8222;51.462;12.630;2023-07-29T09:56:26;29.20;99.90
16229;DHT22;8222;51.462;12.630;2023-07-29T09:58:52;28.90;99.90
16229;DHT22;8222;51.462;12.630;2023-07-29T10:01:18;28.60;99.90
16229;DHT22;8222;51.462;12.630;2023-07-29T10:03:47;28.70;99.90
16229;DHT22;8222;51.462;12.630;2023-07-29T10:06:17;28.80;99.90
16229;DHT22;8222;51.462;12.630;2023-07-29T10:08:44;28.40;99.90
16229;DHT22;8222;51.462;12.630;2023-07-29T10:11:11;28.20;99.90
16229;DHT22;8222;51.462;12.630;2023-07-29T10:13:38;28.10;99.90
16229;DHT22;8222;51.462;12.630;2023-07-29T10:16:04;28.20;99.90
16229;DHT22;8222;51.462;12.630;2023-07-29T10:18:36;28.40;99.90
16229;DHT22;8222;51.462;12.630;2023-07-29T10:21:02;28.60;99.90
16229;DHT22;8222;51.462;12.630;2023-07-29T10:23:32;28.70;99.90
16229;DHT22;8222;51.462;12.630;2023-07-29T10:26:04;28.90;99.90
16229;DHT22;8222;51.462;12.630;2023-07-29T10:28:32;29.00;99.90
16229;DHT22;8222;51.462;12.630;2023-07-29T10:31:00;29.00;99.90
16229;DHT22;8222;51.462;12.630;2023-07-29T10:33:26;29.10;99.90
16229;DHT22;8222;51.462;12.630;2023-07-29T10:35:55;29.10;99.90
16229;DHT22;8222;51.462;12.630;2023-07-29T10:38:24;29.10;99.90
16229;DHT22;8222;51.462;12.630;2023-07-29T10:40:55;28.90;99.90
16229;DHT22;8222;51.462;12.630;2023-07-29T10:43:26;28.80;99.90
16229;DHT22;8222;51.462;12.630;2023-07-29T10:45:52;28.90;99.90
16229;DHT22;8222;51.462;12.630;2023-07-29T10:51:23;28.90;99.90
16229;DHT22;8222;51.462;12.630;2023-07-29T10:53:56;28.90;99.90
16229;DHT22;8222;51.462;12.630;2023-07-29T10:56:42;28.80;99.90
16229;DHT22;8222;51.462;12.630;2023-07-29T11:01:54;28.50;99.90
16229;DHT22;8222;51.462;12.630;2023-07-29T11:04:23;28.40;99.90
16229;DHT22;8222;51.462;12.630;2023-07-29T11:07:19;28.40;99.90
16229;DHT22;8222;51.462;12.630;2023-07-29T11:17:44;29.40;99.90
16229;DHT22;8222;51.462;12.630;2023-07-29T11:20:14;30.20;99.90
16229;DHT22;8222;51.462;12.630;2023-07-29T11:22:40;30.60;99.90
16229;DHT22;8222;51.462;12.630;2023-07-29T11:25:10;30.90;99.90
16229;DHT22;8222;51.462;12.630;2023-07-29T11:27:36;30.80;99.90
16229;DHT22;8222;51.462;12.630;2023-07-29T11:30:08;30.60;99.90
16229;DHT22;8222;51.462;12.630;2023-07-29T11:32:38;30.20;99.90
16229;DHT22;8222;51.462;12.630;2023-07-29T11:35:11;30.20;99.90
16229;DHT22;8222;51.462;12.630;2023-07-29T11:37:41;30.10;99.90
16229;DHT22;8222;51.462;12.630;2023-07-29T11:40:09;29.80;99.90
16229;DHT22;8222;51.462;12.630;2023-07-29T11:42:37;29.40;99.90
16229;DHT22;8222;51.462;12.630;2023-07-29T11:45:04;29.40;99.90
16229;DHT22;8222;51.462;12.630;2023-07-29T11:47:32;29.30;99.90
16229;DHT22;8222;51.462;12.630;2023-07-29T11:50:03;29.10;99.90
16229;DHT22;8222;51.462;12.630;2023-07-29T11:52:34;29.00;99.90
16229;DHT22;8222;51.462;12.630;2023-07-29T11:55:04;29.10;99.90
16229;DHT22;8222;51.462;12.630;2023-07-29T11:57:37;29.20;99.90
16229;DHT22;8222;51.462;12.630;2023-07-29T12:00:10;29.50;99.90
16229;DHT22;8222;51.462;12.630;2023-07-29T12:02:39;29.80;99.90
16229;DHT22;8222;51.462;12.630;2023-07-29T12:05:06;29.80;99.90
16229;DHT22;8222;51.462;12.630;2023-07-29T12:07:33;29.80;99.90
16229;DHT22;8222;51.462;12.630;2023-07-29T12:09:59;29.90;99.90
16229;DHT22;8222;51.462;12.630;2023-07-29T12:12:25;29.70;99.90
16229;DHT22;8222;51.462;12.630;2023-07-29T12:14:50;29.60;99.90
16229;DHT22;8222;51.462;12.630;2023-07-29T12:17:16;29.60;99.90
16229;DHT22;8222;51.462;12.630;2023-07-29T12:19:45;29.60;99.90
16229;DHT22;8222;51.462;12.630;2023-07-29T12:22:18;30.00;99.90
16229;DHT22;8222;51.462;12.630;2023-07-29T12:24:44;30.10;99.90
16229;DHT22;8222;51.462;12.630;2023-07-29T12:27:12;30.10;99.90
16229;DHT22;8222;51.462;12.630;2023-07-29T12:29:44;30.00;99.90
16229;DHT22;8222;51.462;12.630;2023-07-29T12:32:12;29.90;99.90
16229;DHT22;8222;51.462;12.630;2023-07-29T12:34:39;30.00;99.90
16229;DHT22;8222;51.462;12.630;2023-07-29T12:37:05;30.20;99.90
16229;DHT22;8222;51.462;12.630;2023-07-29T12:39:35;30.30;99.90
16229;DHT22;8222;51.462;12.630;2023-07-29T12:42:05;30.20;99.90
16229;DHT22;8222;51.462;12.630;2023-07-29T12:44:35;30.50;99.90
16229;DHT22;8222;51.462;12.630;2023-07-29T12:47:02;30.40;99.90
16229;DHT22;8222;51.462;12.630;2023-07-29T12:49:30;30.40;99.90
16229;DHT22;8222;51.462;12.630;2023-07-29T12:51:59;30.50;99.90
16229;DHT22;8222;51.462;12.630;2023-07-29T12:54:25;30.40;99.90
16229;DHT22;8222;51.462;12.630;2023-07-29T12:56:51;30.60;99.90
16229;DHT22;8222;51.462;12.630;2023-07-29T12:59:17;30.70;99.90
16229;DHT22;8222;51.462;12.630;2023-07-29T13:01:43;30.60;99.90
16229;DHT22;8222;51.462;12.630;2023-07-29T13:04:10;30.80;99.90
16229;DHT22;8222;51.462;12.630;2023-07-29T13:06:36;30.90;99.90
16229;DHT22;8222;51.462;12.630;2023-07-29T13:09:01;31.10;99.90
16229;DHT22;8222;51.462;12.630;2023-07-29T13:11:27;31.10;99.90
16229;DHT22;8222;51.462;12.630;2023-07-29T13:13:52;31.20;99.90
16229;DHT22;8222;51.462;12.630;2023-07-29T13:16:18;31.50;99.90
16229;DHT22;8222;51.462;12.630;2023-07-29T13:18:44;31.20;97.90
16229;DHT22;8222;51.462;12.630;2023-07-29T13:21:10;31.00;95.10
16229;DHT22;8222;51.462;12.630;2023-07-29T13:23:38;31.10;96.10
16229;DHT22;8222;51.462;12.630;2023-07-29T13:26:06;30.60;96.00
16229;DHT22;8222;51.462;12.630;2023-07-29T13:28:31;30.00;97.30
16229;DHT22;8222;51.462;12.630;2023-07-29T13:30:57;30.10;99.80
16229;DHT22;8222;51.462;12.630;2023-07-29T13:33:27;30.00;98.30
16229;DHT22;8222;51.462;12.630;2023-07-29T13:35:55;29.90;99.00
16229;DHT22;8222;51.462;12.630;2023-07-29T13:38:26;30.00;95.50
16229;DHT22;8222;51.462;12.630;2023-07-29T13:40:56;29.80;97.20
16229;DHT22;8222;51.462;12.630;2023-07-29T13:43:21;30.00;96.40
16229;DHT22;8222;51.462;12.630;2023-07-29T13:45:47;30.10;95.70
16229;DHT22;8222;51.462;12.630;2023-07-29T13:48:14;30.30;96.40
16229;DHT22;8222;51.462;12.630;2023-07-29T13:50:40;30.00;94.20
16229;DHT22;8222;51.462;12.630;2023-07-29T13:53:06;30.00;94.60
16229;DHT22;8222;51.462;12.630;2023-07-29T13:55:32;30.20;95.30
16229;DHT22;8222;51.462;12.630;2023-07-29T13:57:58;30.20;94.30
16229;DHT22;8222;51.462;12.630;2023-07-29T14:00:23;30.40;94.20
16229;DHT22;8222;51.462;12.630;2023-07-29T14:02:49;30.20;93.80
16229;DHT22;8222;51.462;12.630;2023-07-29T14:05:15;30.40;95.20
16229;DHT22;8222;51.462;12.630;2023-07-29T14:07:45;30.20;94.20
16229;DHT22;8222;51.462;12.630;2023-07-29T14:10:13;30.20;94.50
16229;DHT22;8222;51.462;12.630;2023-07-29T14:12:41;30.10;94.20
16229;DHT22;8222;51.462;12.630;2023-07-29T14:15:10;30.40;94.20
16229;DHT22;8222;51.462;12.630;2023-07-29T14:17:35;30.60;94.30
16229;DHT22;8222;51.462;12.630;2023-07-29T14:20:03;31.00;91.50
16229;DHT22;8222;51.462;12.630;2023-07-29T14:22:30;30.90;92.20
16229;DHT22;8222;51.462;12.630;2023-07-29T14:24:58;30.90;91.40
16229;DHT22;8222;51.462;12.630;2023-07-29T14:27:23;30.70;91.20
16229;DHT22;8222;51.462;12.630;2023-07-29T14:29:49;30.60;92.60
16229;DHT22;8222;51.462;12.630;2023-07-29T14:32:17;30.50;93.50
16229;DHT22;8222;51.462;12.630;2023-07-29T14:34:43;30.40;92.60
16229;DHT22;8222;51.462;12.630;2023-07-29T14:37:08;30.50;91.60
16229;DHT22;8222;51.462;12.630;2023-07-29T14:39:34;30.90;92.00
16229;DHT22;8222;51.462;12.630;2023-07-29T14:41:59;30.80;91.00
16229;DHT22;8222;51.462;12.630;2023-07-29T14:44:25;30.50;90.50
16229;DHT22;8222;51.462;12.630;2023-07-29T14:46:51;30.40;90.50
16229;DHT22;8222;51.462;12.630;2023-07-29T14:49:16;30.30;88.30
16229;DHT22;8222;51.462;12.630;2023-07-29T14:51:42;29.90;86.60
16229;DHT22;8222;51.462;12.630;2023-07-29T14:54:11;29.50;89.40
16229;DHT22;8222;51.462;12.630;2023-07-29T14:56:38;29.20;90.90
16229;DHT22;8222;51.462;12.630;2023-07-29T14:59:04;28.30;96.00
16229;DHT22;8222;51.462;12.630;2023-07-29T15:01:30;27.40;99.90
16229;DHT22;8222;51.462;12.630;2023-07-29T15:03:58;26.80;99.90
16229;DHT22;8222;51.462;12.630;2023-07-29T15:06:26;26.20;99.90
16229;DHT22;8222;51.462;12.630;2023-07-29T15:08:52;25.30;99.90
16229;DHT22;8222;51.462;12.630;2023-07-29T15:11:17;24.70;99.90
16229;DHT22;8222;51.462;12.630;2023-07-29T15:13:43;24.40;99.90
16229;DHT22;8222;51.462;12.630;2023-07-29T15:16:11;24.10;99.90
16229;DHT22;8222;51.462;12.630;2023-07-29T15:18:39;23.90;99.90
16229;DHT22;8222;51.462;12.630;2023-07-29T15:21:07;23.50;99.90
16229;DHT22;8222;51.462;12.630;2023-07-29T15:23:35;23.40;99.90
16229;DHT22;8222;51.462;12.630;2023-07-29T15:26:02;23.40;99.90
16229;DHT22;8222;51.462;12.630;2023-07-29T15:28:28;23.30;99.90
16229;DHT22;8222;51.462;12.630;2023-07-29T15:30:54;23.20;99.90
16229;DHT22;8222;51.462;12.630;2023-07-29T15:33:22;23.10;99.90
16229;DHT22;8222;51.462;12.630;2023-07-29T15:35:47;23.10;99.90
16229;DHT22;8222;51.462;12.630;2023-07-29T15:38:17;23.00;99.90
16229;DHT22;8222;51.462;12.630;2023-07-29T15:40:44;23.00;99.90
16229;DHT22;8222;51.462;12.630;2023-07-29T15:43:09;23.20;99.90
16229;DHT22;8222;51.462;12.630;2023-07-29T15:45:38;23.10;99.90
16229;DHT22;8222;51.462;12.630;2023-07-29T15:48:04;23.10;99.90
16229;DHT22;8222;51.462;12.630;2023-07-29T15:50:32;23.20;99.90
16229;DHT22;8222;51.462;12.630;2023-07-29T15:52:57;23.30;99.90
16229;DHT22;8222;51.462;12.630;2023-07-29T15:55:23;23.30;99.90
16229;DHT22;8222;51.462;12.630;2023-07-29T15:57:50;23.30;99.90